Roos, Michigan
Current Conditions -  °F | °C
As of 11:34 PM on Monday 20 Oct 2014 (Local Time) from KOSC Reporting Station
Overcast Overcast  
Wind Chill: 42°   Ceiling: 4200
Heat Index: 46°   Visibility: 10mi
Dew Point: 45°   Wind: 8mph
Humidity: 93%   Direction: 310°NW
Pressure: 29.87"   Gusts: NA
Location:  44.2265°N, 83.986°W
Report Text: KOSC 210334Z AUTO 31007KT 10SM SCT014 BKN042 OVC050 07/07 A2987 RMK AO2 T00800070
Loading
Personal Weather Stations






























Interactive Weather Map
Tropical Storm Tracking
New forecast layout! Learn more

10-Day Weather Forecast

Advertisements
Track Severe Weather on mobile